Time;durP1;ratioP1;P1;durP2;ratioP2;P2;SDS_P1;SDS_P2;PMS_P1;PMS_P2;Temp;Humidity;BMP_temperature;BMP_pressure;BME280_temperature;BME280_humidity;BME280_pressure;Samples;Min_cycle;Max_cycle;Signal;HPM_P1;HPM_P2
2024/01/17 00:00:49;;;;;;;8.07;6.47;;;;;;;;;;4993630;28;20264;-78
2024/01/17 00:03:16;;;;;;;13.87;6.33;;;;;;;;;;4994260;28;20204;-77
2024/01/17 00:05:43;;;;;;;8.50;6.30;;;;;;;;;;4993722;28;20244;-78
2024/01/17 00:08:11;;;;;;;7.60;6.47;;;;;;;;;;4993856;28;20208;-78
2024/01/17 00:10:38;;;;;;;11.83;8.10;;;;;;;;;;4993451;28;20235;-78
2024/01/17 00:13:05;;;;;;;6.50;5.90;;;;;;;;;;4994076;28;20217;-77
2024/01/17 00:15:33;;;;;;;6.43;5.77;;;;;;;;;;4993687;28;20232;-77
2024/01/17 00:18:00;;;;;;;9.80;5.93;;;;;;;;;;4993853;28;20209;-78
2024/01/17 00:20:27;;;;;;;8.10;7.27;;;;;;;;;;4993290;28;20331;-78
2024/01/17 00:22:55;;;;;;;6.97;6.27;;;;;;;;;;4993648;28;20855;-78
2024/01/17 00:25:23;;;;;;;10.93;5.60;;;;;;;;;;4993443;28;20299;-78
2024/01/17 00:27:50;;;;;;;11.27;7.77;;;;;;;;;;4993713;28;20251;-78
2024/01/17 00:30:17;;;;;;;9.23;5.93;;;;;;;;;;4992834;28;20236;-78
2024/01/17 00:32:44;;;;;;;9.93;5.67;;;;;;;;;;4993529;28;20207;-78
2024/01/17 00:35:11;;;;;;;7.43;6.60;;;;;;;;;;4993002;28;20590;-78
2024/01/17 00:37:39;;;;;;;8.07;7.23;;;;;;;;;;4993506;28;20208;-78
2024/01/17 00:40:07;;;;;;;9.70;6.97;;;;;;;;;;4992740;28;20228;-79
2024/01/17 00:42:35;;;;;;;9.90;7.00;;;;;;;;;;4993267;28;20255;-78
2024/01/17 00:45:03;;;;;;;11.07;5.97;;;;;;;;;;4993392;28;20215;-83
2024/01/17 00:47:30;;;;;;;15.10;6.37;;;;;;;;;;4993057;28;20212;-78
2024/01/17 00:49:57;;;;;;;9.50;6.10;;;;;;;;;;4993007;28;20236;-78
2024/01/17 00:52:24;;;;;;;13.93;7.17;;;;;;;;;;4992776;28;20241;-78
2024/01/17 00:54:51;;;;;;;6.70;6.10;;;;;;;;;;4993123;28;20220;-78
2024/01/17 00:57:18;;;;;;;6.97;5.80;;;;;;;;;;4992424;28;20236;-78
2024/01/17 00:59:47;;;;;;;10.43;5.93;;;;;;;;;;4992741;28;20695;-78
2024/01/17 01:02:14;;;;;;;7.73;6.70;;;;;;;;;;4992523;28;20287;-78
2024/01/17 01:04:41;;;;;;;8.03;6.77;;;;;;;;;;4992592;28;20668;-78
2024/01/17 01:07:08;;;;;;;7.87;5.87;;;;;;;;;;4992352;28;20290;-78
2024/01/17 01:09:35;;;;;;;6.93;6.30;;;;;;;;;;4992804;28;20263;-78
2024/01/17 01:12:02;;;;;;;7.37;6.67;;;;;;;;;;4992392;28;20250;-77
2024/01/17 01:14:29;;;;;;;7.57;5.63;;;;;;;;;;4992896;28;20566;-78
2024/01/17 01:16:57;;;;;;;8.30;7.53;;;;;;;;;;4992064;28;20239;-78
2024/01/17 01:19:24;;;;;;;8.57;6.73;;;;;;;;;;4992609;28;20264;-78
2024/01/17 01:21:51;;;;;;;11.57;7.17;;;;;;;;;;4992168;28;20232;-78
2024/01/17 01:24:19;;;;;;;6.93;5.63;;;;;;;;;;4992906;28;20204;-77
2024/01/17 01:26:46;;;;;;;6.83;6.13;;;;;;;;;;4992080;28;20241;-78
2024/01/17 01:29:14;;;;;;;10.03;6.07;;;;;;;;;;4992645;28;20209;-77
2024/01/17 01:31:41;;;;;;;9.40;6.77;;;;;;;;;;4991970;28;20718;-78
2024/01/17 01:34:09;;;;;;;9.77;6.97;;;;;;;;;;4992352;28;20226;-78
2024/01/17 01:36:36;;;;;;;10.03;7.00;;;;;;;;;;4992176;28;20671;-78
2024/01/17 01:39:03;;;;;;;10.07;6.73;;;;;;;;;;4992159;28;20211;-77
2024/01/17 01:41:30;;;;;;;7.20;6.57;;;;;;;;;;4991796;28;20263;-78
2024/01/17 01:43:57;;;;;;;8.53;7.20;;;;;;;;;;4992408;28;20627;-78
2024/01/17 01:46:26;;;;;;;6.00;5.47;;;;;;;;;;4992008;28;20244;-78
2024/01/17 01:48:54;;;;;;;7.67;5.93;;;;;;;;;;4992070;28;20625;-78
2024/01/17 01:51:23;;;;;;;9.10;6.53;;;;;;;;;;4991781;28;20235;-78
2024/01/17 01:53:51;;;;;;;16.50;6.37;;;;;;;;;;4992254;28;20586;-77
2024/01/17 01:56:19;;;;;;;11.77;6.77;;;;;;;;;;4991808;28;20235;-78
2024/01/17 01:58:47;;;;;;;8.07;5.67;;;;;;;;;;4991951;28;20216;-81
2024/01/17 02:01:15;;;;;;;7.97;6.23;;;;;;;;;;4991522;28;20233;-77
2024/01/17 02:03:43;;;;;;;6.43;5.47;;;;;;;;;;4992194;28;20220;-78
2024/01/17 02:06:11;;;;;;;6.53;5.10;;;;;;;;;;4990658;28;20336;-78
2024/01/17 02:08:40;;;;;;;7.67;5.53;;;;;;;;;;4989000;28;20214;-77
2024/01/17 02:11:08;;;;;;;6.80;6.07;;;;;;;;;;4991653;28;20635;-77
2024/01/17 02:13:35;;;;;;;9.23;6.30;;;;;;;;;;4992445;28;20201;-78
2024/01/17 02:16:02;;;;;;;9.97;7.17;;;;;;;;;;4993051;28;20241;-78
2024/01/17 02:18:29;;;;;;;7.50;6.03;;;;;;;;;;4996318;28;20308;-78
2024/01/17 02:20:56;;;;;;;6.77;6.07;;;;;;;;;;4995514;28;20635;-78
2024/01/17 02:23:24;;;;;;;8.50;6.47;;;;;;;;;;4996049;28;20676;-78
2024/01/17 02:25:52;;;;;;;6.40;5.67;;;;;;;;;;4995674;28;20244;-78
2024/01/17 02:28:20;;;;;;;11.40;6.53;;;;;;;;;;4996017;28;20208;-78
2024/01/17 02:30:47;;;;;;;8.60;6.90;;;;;;;;;;4995396;28;20240;-78
2024/01/17 02:33:14;;;;;;;7.53;5.93;;;;;;;;;;4995898;28;20218;-78
2024/01/17 02:35:41;;;;;;;9.17;6.17;;;;;;;;;;4995478;28;20665;-78
2024/01/17 02:38:09;;;;;;;6.00;5.43;;;;;;;;;;4995757;28;20220;-78
2024/01/17 02:40:36;;;;;;;12.70;6.47;;;;;;;;;;4995057;28;20645;-78
2024/01/17 02:43:04;;;;;;;8.27;6.60;;;;;;;;;;4996075;28;20197;-78
2024/01/17 02:45:31;;;;;;;11.27;6.70;;;;;;;;;;4995408;28;20315;-78
2024/01/17 02:47:59;;;;;;;8.47;6.23;;;;;;;;;;4995528;28;20612;-78
2024/01/17 02:50:26;;;;;;;7.30;6.60;;;;;;;;;;4994984;28;20246;-78
2024/01/17 02:52:53;;;;;;;7.50;6.63;;;;;;;;;;4995436;28;20580;-78
2024/01/17 02:55:22;;;;;;;8.13;6.63;;;;;;;;;;4995126;28;20211;-78
2024/01/17 02:57:50;;;;;;;7.70;6.73;;;;;;;;;;4995468;28;20219;-78
2024/01/17 03:00:19;;;;;;;7.43;5.23;;;;;;;;;;4994964;28;20252;-78
2024/01/17 03:02:46;;;;;;;7.80;6.57;;;;;;;;;;4995482;28;20208;-78
2024/01/17 03:05:13;;;;;;;7.33;6.40;;;;;;;;;;4994775;28;20273;-79
2024/01/17 03:07:40;;;;;;;6.83;5.70;;;;;;;;;;4995238;28;20204;-79
2024/01/17 03:10:09;;;;;;;9.77;6.03;;;;;;;;;;4994861;28;20286;-78
2024/01/17 03:12:36;;;;;;;5.63;5.13;;;;;;;;;;4995125;28;20235;-78
2024/01/17 03:15:03;;;;;;;6.67;6.07;;;;;;;;;;4994667;28;20618;-79
2024/01/17 03:17:31;;;;;;;7.23;5.63;;;;;;;;;;4995172;28;20208;-77
2024/01/17 03:19:58;;;;;;;6.80;5.60;;;;;;;;;;4995137;28;20236;-78
2024/01/17 03:22:25;;;;;;;7.47;6.13;;;;;;;;;;4994875;28;20239;-78
2024/01/17 03:24:52;;;;;;;12.67;6.07;;;;;;;;;;4995010;28;20204;-78
2024/01/17 03:27:19;;;;;;;9.83;5.83;;;;;;;;;;4993959;28;20240;-78
2024/01/17 03:29:46;;;;;;;6.80;6.30;;;;;;;;;;4994738;28;20247;-78
2024/01/17 03:32:13;;;;;;;11.57;6.03;;;;;;;;;;4993971;28;20244;-77
2024/01/17 03:34:42;;;;;;;5.27;4.87;;;;;;;;;;4994685;28;20204;-78
2024/01/17 03:37:09;;;;;;;6.27;5.53;;;;;;;;;;4993877;28;20721;-77
2024/01/17 03:39:36;;;;;;;5.20;4.80;;;;;;;;;;4994417;28;20208;-78
2024/01/17 03:42:03;;;;;;;7.67;6.50;;;;;;;;;;4994037;28;20228;-78
2024/01/17 03:44:30;;;;;;;7.67;5.83;;;;;;;;;;4994566;28;20228;-78
2024/01/17 03:46:57;;;;;;;7.20;6.30;;;;;;;;;;4993909;28;20239;-78
2024/01/17 03:49:24;;;;;;;10.60;6.17;;;;;;;;;;4994577;28;20204;-77
2024/01/17 03:51:54;;;;;;;8.97;6.43;;;;;;;;;;4994112;28;20290;-77
2024/01/17 03:54:22;;;;;;;7.77;5.90;;;;;;;;;;4994569;28;20240;-77
2024/01/17 03:56:49;;;;;;;7.70;5.93;;;;;;;;;;4993642;28;20722;-78
2024/01/17 03:59:16;;;;;;;6.47;5.87;;;;;;;;;;4994516;28;20220;-78
2024/01/17 04:01:44;;;;;;;9.00;6.63;;;;;;;;;;4993555;28;20727;-77
2024/01/17 04:04:11;;;;;;;8.50;6.17;;;;;;;;;;4994133;28;20675;-77
2024/01/17 04:06:38;;;;;;;9.27;6.97;;;;;;;;;;4993874;28;20295;-77
2024/01/17 04:09:07;;;;;;;7.53;6.67;;;;;;;;;;4993923;28;20227;-78
2024/01/17 04:11:34;;;;;;;8.33;6.97;;;;;;;;;;4992809;28;20319;-77
2024/01/17 04:14:01;;;;;;;8.77;7.43;;;;;;;;;;4994101;28;20213;-78
2024/01/17 04:16:28;;;;;;;9.43;6.47;;;;;;;;;;4993286;28;20240;-77
2024/01/17 04:18:55;;;;;;;10.43;6.70;;;;;;;;;;4993854;28;20294;-77
2024/01/17 04:21:22;;;;;;;7.70;5.83;;;;;;;;;;4993364;28;20236;-77
2024/01/17 04:23:50;;;;;;;7.27;6.07;;;;;;;;;;4993990;28;20343;-77
2024/01/17 04:26:25;;;;;;;10.30;7.13;;;;;;;;;;4993531;28;20239;-77
2024/01/17 04:28:52;;;;;;;6.10;5.33;;;;;;;;;;4993429;28;20689;-78
2024/01/17 04:31:24;;;;;;;6.00;5.37;;;;;;;;;;4992939;28;20286;-78
2024/01/17 04:33:51;;;;;;;6.27;5.60;;;;;;;;;;4993747;28;20208;-77
2024/01/17 04:36:18;;;;;;;5.93;5.40;;;;;;;;;;4993058;28;20729;-77
2024/01/17 04:38:45;;;;;;;6.10;5.50;;;;;;;;;;4992767;28;20212;-78
2024/01/17 04:41:13;;;;;;;13.77;6.13;;;;;;;;;;4992939;28;20670;-78
2024/01/17 04:43:42;;;;;;;9.60;6.10;;;;;;;;;;4993321;28;20702;-77
2024/01/17 04:46:09;;;;;;;6.93;6.07;;;;;;;;;;4992908;28;20232;-78
2024/01/17 04:48:36;;;;;;;8.90;7.93;;;;;;;;;;4993139;28;20287;-78
2024/01/17 04:51:04;;;;;;;7.97;6.40;;;;;;;;;;4992887;28;20663;-77
2024/01/17 04:53:32;;;;;;;8.80;6.80;;;;;;;;;;4993161;28;20207;-77
2024/01/17 04:55:59;;;;;;;6.07;5.47;;;;;;;;;;4992933;28;20694;-77
2024/01/17 04:58:26;;;;;;;8.17;6.77;;;;;;;;;;4992930;28;20227;-78
2024/01/17 05:00:55;;;;;;;6.43;5.10;;;;;;;;;;4992713;28;20240;-78
2024/01/17 05:03:22;;;;;;;6.13;5.60;;;;;;;;;;4992984;28;20215;-77
2024/01/17 05:05:49;;;;;;;8.77;7.87;;;;;;;;;;4992617;28;20611;-77
2024/01/17 05:08:16;;;;;;;8.60;6.07;;;;;;;;;;4993045;28;20258;-77
2024/01/17 05:10:44;;;;;;;9.43;6.80;;;;;;;;;;4992582;28;20255;-77
2024/01/17 05:13:11;;;;;;;8.40;6.60;;;;;;;;;;4992747;28;20232;-77
2024/01/17 05:15:38;;;;;;;7.40;6.80;;;;;;;;;;4992742;28;20270;-77
2024/01/17 05:18:07;;;;;;;8.17;6.47;;;;;;;;;;4992763;28;20219;-77
2024/01/17 05:20:34;;;;;;;7.73;7.03;;;;;;;;;;4992219;28;20591;-77
2024/01/17 05:23:02;;;;;;;7.33;6.23;;;;;;;;;;4992724;28;20208;-77
2024/01/17 05:25:29;;;;;;;10.00;6.63;;;;;;;;;;4992367;28;20244;-77
2024/01/17 05:27:56;;;;;;;7.50;6.80;;;;;;;;;;4992758;28;20258;-78
2024/01/17 05:30:24;;;;;;;12.73;6.73;;;;;;;;;;4991996;28;20251;-77
2024/01/17 05:32:51;;;;;;;7.67;6.87;;;;;;;;;;4992597;28;20231;-77
2024/01/17 05:35:20;;;;;;;11.67;8.23;;;;;;;;;;4991936;28;20204;-77
2024/01/17 05:37:48;;;;;;;10.70;7.50;;;;;;;;;;4992399;28;20216;-77
2024/01/17 05:40:15;;;;;;;10.50;6.60;;;;;;;;;;4991966;28;20220;-77
2024/01/17 05:42:42;;;;;;;8.57;6.87;;;;;;;;;;4992226;28;20208;-77
2024/01/17 05:45:09;;;;;;;9.77;8.07;;;;;;;;;;4992072;28;20217;-77
2024/01/17 05:47:37;;;;;;;7.43;6.77;;;;;;;;;;4992234;28;20212;-77
2024/01/17 05:50:08;;;;;;;16.73;9.17;;;;;;;;;;4991887;28;20227;-77
2024/01/17 05:52:37;;;;;;;13.07;7.10;;;;;;;;;;4992392;28;20228;-77
2024/01/17 05:55:04;;;;;;;11.43;7.40;;;;;;;;;;4991928;28;20211;-78
2024/01/17 05:57:31;;;;;;;9.57;7.00;;;;;;;;;;4991853;28;20212;-77
2024/01/17 05:59:58;;;;;;;12.10;8.70;;;;;;;;;;4992400;28;20236;-77
2024/01/17 06:02:25;;;;;;;8.77;7.10;;;;;;;;;;4991664;28;20236;-77
2024/01/17 06:04:52;;;;;;;11.97;7.63;;;;;;;;;;4992261;28;20586;-77
2024/01/17 06:07:19;;;;;;;9.97;6.50;;;;;;;;;;4991573;28;20236;-77
2024/01/17 06:09:47;;;;;;;17.90;8.47;;;;;;;;;;4992419;28;20215;-77
2024/01/17 06:12:14;;;;;;;7.97;6.10;;;;;;;;;;4991675;28;20242;-77
2024/01/17 06:14:41;;;;;;;8.83;7.00;;;;;;;;;;4992030;28;20695;-76
2024/01/17 06:17:08;;;;;;;6.80;6.10;;;;;;;;;;4991424;28;20246;-77
2024/01/17 06:19:35;;;;;;;9.57;6.53;;;;;;;;;;4991830;28;20961;-77
2024/01/17 06:22:03;;;;;;;8.03;7.23;;;;;;;;;;4991592;28;20238;-76
2024/01/17 06:24:30;;;;;;;11.00;7.20;;;;;;;;;;4991907;28;20219;-76
2024/01/17 06:26:58;;;;;;;8.20;6.77;;;;;;;;;;4991388;28;20236;-76
2024/01/17 06:29:26;;;;;;;9.97;5.70;;;;;;;;;;4991992;28;20663;-77
2024/01/17 06:31:53;;;;;;;15.57;7.50;;;;;;;;;;4991541;28;20243;-77
2024/01/17 06:34:20;;;;;;;11.83;7.70;;;;;;;;;;4991753;28;20299;-76
2024/01/17 06:36:48;;;;;;;12.93;8.57;;;;;;;;;;4991338;28;20246;-76
2024/01/17 06:39:16;;;;;;;14.37;10.70;;;;;;;;;;4991989;28;20208;-76
2024/01/17 06:41:43;;;;;;;8.83;7.90;;;;;;;;;;4991378;28;20251;-76
2024/01/17 06:44:12;;;;;;;12.37;7.30;;;;;;;;;;4991841;28;20204;-77
2024/01/17 06:46:39;;;;;;;8.27;7.37;;;;;;;;;;4991314;28;20727;-77
2024/01/17 06:49:06;;;;;;;9.20;7.37;;;;;;;;;;4991811;28;20266;-77
2024/01/17 06:51:33;;;;;;;9.73;7.70;;;;;;;;;;4991133;28;20871;-76
2024/01/17 06:54:00;;;;;;;9.20;7.40;;;;;;;;;;4991916;28;20210;-77
2024/01/17 06:56:27;;;;;;;7.90;6.47;;;;;;;;;;4991255;28;20245;-77
2024/01/17 06:58:54;;;;;;;9.50;7.17;;;;;;;;;;4991509;28;20288;-77
2024/01/17 07:01:23;;;;;;;10.97;8.03;;;;;;;;;;4991161;28;20668;-77
2024/01/17 07:03:50;;;;;;;16.23;11.43;;;;;;;;;;4995244;28;20212;-77
2024/01/17 07:06:17;;;;;;;20.00;11.63;;;;;;;;;;4994777;28;20247;-76
2024/01/17 07:08:44;;;;;;;23.90;15.23;;;;;;;;;;4994981;28;20266;-77
2024/01/17 07:11:11;;;;;;;19.17;12.40;;;;;;;;;;4994534;28;20248;-77
2024/01/17 07:13:39;;;;;;;11.83;10.50;;;;;;;;;;4994907;28;20278;-77
2024/01/17 07:16:06;;;;;;;21.83;10.90;;;;;;;;;;4994571;28;20313;-76
2024/01/17 07:18:35;;;;;;;10.23;8.43;;;;;;;;;;4994747;28;20606;-77
2024/01/17 07:21:06;;;;;;;14.97;9.50;;;;;;;;;;4994444;28;20240;-77
2024/01/17 07:23:33;;;;;;;13.00;7.47;;;;;;;;;;4994879;28;20209;-77
2024/01/17 07:26:01;;;;;;;21.30;9.73;;;;;;;;;;4994330;28;20773;-77
2024/01/17 07:28:28;;;;;;;7.67;6.70;;;;;;;;;;4994441;28;20234;-77
2024/01/17 07:30:54;;;;;;;11.13;9.67;;;;;;;;;;4994198;28;20743;-77
2024/01/17 07:33:21;;;;;;;8.83;7.93;;;;;;;;;;4994708;28;20291;-77
2024/01/17 07:35:50;;;;;;;7.87;6.90;;;;;;;;;;4994169;28;20717;-78
2024/01/17 07:38:17;;;;;;;18.53;8.23;;;;;;;;;;4994463;28;20212;-78
2024/01/17 07:40:44;;;;;;;12.53;7.30;;;;;;;;;;4993888;28;20258;-77
2024/01/17 07:43:11;;;;;;;11.83;6.77;;;;;;;;;;4994595;28;20208;-77
2024/01/17 07:45:38;;;;;;;14.50;7.43;;;;;;;;;;4994182;28;20284;-77
2024/01/17 07:48:05;;;;;;;8.87;7.80;;;;;;;;;;4994255;28;20212;-77
2024/01/17 07:50:32;;;;;;;8.90;7.13;;;;;;;;;;4993710;28;20249;-77
2024/01/17 07:53:02;;;;;;;8.57;6.23;;;;;;;;;;4994150;28;20632;-77
2024/01/17 07:55:29;;;;;;;6.73;6.03;;;;;;;;;;4993709;28;20270;-77
2024/01/17 07:57:58;;;;;;;12.67;6.43;;;;;;;;;;4994016;28;20300;-77
2024/01/17 08:00:25;;;;;;;11.43;7.07;;;;;;;;;;4993608;28;20267;-79
2024/01/17 08:02:52;;;;;;;8.27;5.90;;;;;;;;;;4994170;28;20202;-78
2024/01/17 08:05:19;;;;;;;7.40;6.73;;;;;;;;;;4993671;28;20692;-77
2024/01/17 08:07:46;;;;;;;9.70;6.50;;;;;;;;;;4993942;28;20832;-77
2024/01/17 08:10:14;;;;;;;13.47;8.30;;;;;;;;;;4993592;28;20261;-77
2024/01/17 08:12:42;;;;;;;6.97;5.77;;;;;;;;;;4993689;28;20276;-77
2024/01/17 08:15:09;;;;;;;9.40;6.97;;;;;;;;;;4992710;28;20239;-77
2024/01/17 08:17:37;;;;;;;8.93;8.03;;;;;;;;;;4993581;28;20264;-77
2024/01/17 08:20:06;;;;;;;13.63;8.07;;;;;;;;;;4993154;28;20771;-78
2024/01/17 08:22:34;;;;;;;8.27;7.00;;;;;;;;;;4993986;28;20213;-77
2024/01/17 08:25:00;;;;;;;9.60;8.67;;;;;;;;;;4993768;28;20261;-77
2024/01/17 08:27:28;;;;;;;11.30;7.83;;;;;;;;;;4993061;28;20298;-78
2024/01/17 08:29:55;;;;;;;9.00;7.27;;;;;;;;;;4993523;28;20767;-78
2024/01/17 08:32:22;;;;;;;15.37;8.43;;;;;;;;;;4993057;28;20254;-81
2024/01/17 08:34:49;;;;;;;10.33;7.70;;;;;;;;;;4993507;28;20673;-77
2024/01/17 08:37:16;;;;;;;15.33;7.63;;;;;;;;;;4992852;28;20258;-77
2024/01/17 08:39:43;;;;;;;9.80;7.03;;;;;;;;;;4993367;28;20214;-77
2024/01/17 08:42:11;;;;;;;12.07;8.60;;;;;;;;;;4992967;28;20245;-77
2024/01/17 08:44:42;;;;;;;10.57;8.57;;;;;;;;;;4993328;28;20267;-78
2024/01/17 08:47:09;;;;;;;12.13;7.83;;;;;;;;;;4992633;28;20743;-78
2024/01/17 08:49:40;;;;;;;12.27;7.47;;;;;;;;;;4993376;28;20274;-77
2024/01/17 08:52:07;;;;;;;12.47;9.53;;;;;;;;;;4992791;28;20325;-78
2024/01/17 08:54:35;;;;;;;11.60;8.10;;;;;;;;;;4993014;28;20225;-77
2024/01/17 08:57:02;;;;;;;32.27;15.80;;;;;;;;;;4992489;28;20316;-78
2024/01/17 08:59:29;;;;;;;15.77;9.47;;;;;;;;;;4992900;28;20233;-78
2024/01/17 09:01:58;;;;;;;14.33;9.03;;;;;;;;;;4992696;28;20235;-78
2024/01/17 09:04:25;;;;;;;13.17;9.37;;;;;;;;;;4993248;28;20204;-78
2024/01/17 09:06:52;;;;;;;15.17;9.40;;;;;;;;;;4992449;28;20243;-78
2024/01/17 09:09:20;;;;;;;11.73;9.10;;;;;;;;;;4992855;28;20704;-78
2024/01/17 09:11:47;;;;;;;11.90;8.13;;;;;;;;;;4992258;28;20719;-78
2024/01/17 09:14:19;;;;;;;9.43;8.43;;;;;;;;;;4992949;28;20231;-79
2024/01/17 09:16:46;;;;;;;7.37;6.63;;;;;;;;;;4992450;28;20242;-78
2024/01/17 09:19:14;;;;;;;10.33;8.53;;;;;;;;;;4992806;28;20210;-79
2024/01/17 09:21:41;;;;;;;11.03;8.17;;;;;;;;;;4992241;28;20239;-78
2024/01/17 09:24:08;;;;;;;9.40;6.60;;;;;;;;;;4992900;28;20215;-78
2024/01/17 09:26:35;;;;;;;9.53;7.33;;;;;;;;;;4991926;28;20234;-78
2024/01/17 09:29:03;;;;;;;16.83;9.27;;;;;;;;;;4992790;28;20207;-78
2024/01/17 09:31:30;;;;;;;12.37;8.20;;;;;;;;;;4991968;28;20236;-78
2024/01/17 09:33:57;;;;;;;12.13;8.37;;;;;;;;;;4992615;28;20258;-78
2024/01/17 09:36:25;;;;;;;12.63;8.73;;;;;;;;;;4991924;28;20235;-78
2024/01/17 09:38:53;;;;;;;16.33;7.27;;;;;;;;;;4992067;28;20242;-79
2024/01/17 09:41:20;;;;;;;10.07;6.80;;;;;;;;;;4991706;28;20327;-79
2024/01/17 09:43:47;;;;;;;12.73;7.70;;;;;;;;;;4992240;28;20729;-78
2024/01/17 09:46:15;;;;;;;11.87;8.60;;;;;;;;;;4991960;28;20235;-79
2024/01/17 09:48:42;;;;;;;14.03;8.27;;;;;;;;;;4994286;28;20266;-79
2024/01/17 09:51:10;;;;;;;11.77;9.10;;;;;;;;;;4992180;28;20270;-79
2024/01/17 09:53:40;;;;;;;15.53;8.50;;;;;;;;;;4992273;28;20226;-79
2024/01/17 09:56:07;;;;;;;12.63;9.13;;;;;;;;;;4991987;28;20246;-78
2024/01/17 09:58:35;;;;;;;12.60;8.70;;;;;;;;;;4992354;28;20208;-79
2024/01/17 10:01:04;;;;;;;14.20;9.00;;;;;;;;;;4992637;28;20235;-80
2024/01/17 10:03:31;;;;;;;12.83;9.53;;;;;;;;;;4993261;28;20235;-79
2024/01/17 10:05:59;;;;;;;15.23;8.67;;;;;;;;;;4992587;28;20868;-79
2024/01/17 10:08:26;;;;;;;11.77;8.60;;;;;;;;;;4992946;28;20258;-79
2024/01/17 10:10:54;;;;;;;14.80;9.67;;;;;;;;;;4992308;28;20240;-79
2024/01/17 10:13:21;;;;;;;15.30;9.37;;;;;;;;;;4992906;28;20232;-79
2024/01/17 10:15:48;;;;;;;18.40;9.93;;;;;;;;;;4991884;28;20236;-79
2024/01/17 10:18:15;;;;;;;16.53;8.47;;;;;;;;;;4992257;28;20205;-79
2024/01/17 10:20:43;;;;;;;20.67;11.10;;;;;;;;;;4992122;28;20315;-79
2024/01/17 10:23:10;;;;;;;10.97;8.53;;;;;;;;;;4992554;28;20290;-79
2024/01/17 10:25:38;;;;;;;16.47;9.77;;;;;;;;;;4991750;28;20232;-80
2024/01/17 10:28:07;;;;;;;13.03;9.33;;;;;;;;;;4992103;28;20235;-79
2024/01/17 10:30:34;;;;;;;14.33;8.93;;;;;;;;;;4991662;28;20238;-79
2024/01/17 10:33:02;;;;;;;14.00;9.83;;;;;;;;;;4992233;28;20204;-80
2024/01/17 10:35:29;;;;;;;16.40;8.63;;;;;;;;;;4991800;28;20364;-79
2024/01/17 10:37:56;;;;;;;14.83;9.93;;;;;;;;;;4994815;28;20214;-79
2024/01/17 10:40:24;;;;;;;22.37;9.10;;;;;;;;;;4995189;28;20661;-79
2024/01/17 10:43:04;;;;;;;17.97;9.13;;;;;;;;;;4996138;28;20418;-79
2024/01/17 10:45:36;;;;;;;13.47;9.07;;;;;;;;;;4995920;28;20235;-79
2024/01/17 10:48:03;;;;;;;14.37;9.60;;;;;;;;;;4995996;28;20211;-79
2024/01/17 10:50:30;;;;;;;18.23;11.37;;;;;;;;;;4995615;28;20235;-80
2024/01/17 10:53:00;;;;;;;14.87;9.43;;;;;;;;;;4995640;28;20210;-79
2024/01/17 10:55:29;;;;;;;15.73;9.03;;;;;;;;;;4995452;28;20228;-79
2024/01/17 10:57:59;;;;;;;10.67;7.80;;;;;;;;;;4995605;28;20220;-79
2024/01/17 11:00:31;;;;;;;10.33;7.93;;;;;;;;;;4995292;28;20265;-80
2024/01/17 11:03:00;;;;;;;16.87;9.40;;;;;;;;;;4995828;28;20212;-80
2024/01/17 11:05:28;;;;;;;15.57;10.43;;;;;;;;;;4995358;28;20717;-80
2024/01/17 11:07:55;;;;;;;20.53;10.70;;;;;;;;;;4995425;28;20262;-80
2024/01/17 11:10:22;;;;;;;15.33;10.67;;;;;;;;;;4995049;28;20754;-80
2024/01/17 11:12:50;;;;;;;14.17;8.57;;;;;;;;;;4995445;28;20712;-80
2024/01/17 11:15:17;;;;;;;13.90;10.17;;;;;;;;;;4994874;28;20226;-80
2024/01/17 11:17:45;;;;;;;21.43;11.27;;;;;;;;;;4995102;28;20667;-80
2024/01/17 11:20:16;;;;;;;16.43;10.67;;;;;;;;;;4994718;28;20256;-80
2024/01/17 11:22:43;;;;;;;15.83;10.50;;;;;;;;;;4995349;28;20216;-80
2024/01/17 11:25:16;;;;;;;14.50;9.67;;;;;;;;;;4995189;28;20212;-80
2024/01/17 11:27:46;;;;;;;16.03;9.33;;;;;;;;;;4995394;28;20268;-80
2024/01/17 11:30:17;;;;;;;26.30;11.67;;;;;;;;;;4994908;28;20220;-80
2024/01/17 11:32:51;;;;;;;21.80;12.70;;;;;;;;;;4995088;28;20593;-80
2024/01/17 11:35:32;;;;;;;18.77;12.40;;;;;;;;;;4994508;28;20210;-80
2024/01/17 11:38:02;;;;;;;18.73;12.00;;;;;;;;;;4994451;28;20214;-81
2024/01/17 11:40:29;;;;;;;19.97;10.57;;;;;;;;;;4994459;28;20316;-81
2024/01/17 11:42:56;;;;;;;18.27;11.50;;;;;;;;;;4994992;28;20763;-81
2024/01/17 11:45:24;;;;;;;17.17;12.70;;;;;;;;;;4994532;28;20230;-81
2024/01/17 11:47:53;;;;;;;20.27;11.77;;;;;;;;;;4994601;28;20221;-80
2024/01/17 11:50:21;;;;;;;18.50;11.73;;;;;;;;;;4994805;28;20230;-80
2024/01/17 11:52:48;;;;;;;17.47;12.03;;;;;;;;;;4994994;28;20222;-80
2024/01/17 11:55:17;;;;;;;18.10;13.10;;;;;;;;;;4994216;28;20240;-80
2024/01/17 11:57:44;;;;;;;19.17;12.40;;;;;;;;;;4994519;28;20206;-80
2024/01/17 12:00:12;;;;;;;33.50;17.47;;;;;;;;;;4994125;28;20254;-81
2024/01/17 12:02:40;;;;;;;24.13;14.50;;;;;;;;;;4994387;28;20215;-81
2024/01/17 12:05:08;;;;;;;28.20;13.67;;;;;;;;;;4994955;28;20204;-84
2024/01/17 12:07:39;;;;;;;22.63;14.17;;;;;;;;;;4995457;28;20210;-81
2024/01/17 12:10:09;;;;;;;21.20;13.77;;;;;;;;;;4994164;28;20737;-81
2024/01/17 12:12:38;;;;;;;22.07;12.97;;;;;;;;;;4994979;28;20542;-81
2024/01/17 12:15:06;;;;;;;21.77;14.10;;;;;;;;;;4993799;28;21018;-81
2024/01/17 12:17:34;;;;;;;23.57;14.63;;;;;;;;;;4994239;28;20215;-80
2024/01/17 12:20:02;;;;;;;23.80;15.00;;;;;;;;;;4994028;28;20267;-80
2024/01/17 12:22:29;;;;;;;17.50;13.43;;;;;;;;;;4994287;28;20271;-81
2024/01/17 12:24:56;;;;;;;20.00;13.70;;;;;;;;;;4994041;28;20210;-81
2024/01/17 12:27:23;;;;;;;21.63;12.67;;;;;;;;;;4993434;28;20241;-82
2024/01/17 12:29:54;;;;;;;19.53;12.80;;;;;;;;;;4993797;28;20232;-82
2024/01/17 12:32:22;;;;;;;16.27;10.80;;;;;;;;;;4993528;28;20658;-81
2024/01/17 12:34:49;;;;;;;17.80;11.80;;;;;;;;;;4993571;28;20690;-82
2024/01/17 12:37:16;;;;;;;18.03;11.93;;;;;;;;;;4993299;28;20238;-81
2024/01/17 12:39:43;;;;;;;19.47;12.17;;;;;;;;;;4993641;28;20207;-83
2024/01/17 12:42:11;;;;;;;18.70;11.93;;;;;;;;;;4993012;28;20266;-82
2024/01/17 12:44:38;;;;;;;15.83;12.30;;;;;;;;;;4993731;28;20253;-83
2024/01/17 12:47:07;;;;;;;20.83;12.93;;;;;;;;;;4992689;28;20270;-82
2024/01/17 12:49:34;;;;;;;18.13;12.07;;;;;;;;;;4993328;28;20270;-81
2024/01/17 12:52:01;;;;;;;18.97;12.80;;;;;;;;;;4992888;28;20334;-82
2024/01/17 12:54:28;;;;;;;18.27;13.80;;;;;;;;;;4993253;28;20717;-82
2024/01/17 12:56:56;;;;;;;18.50;14.00;;;;;;;;;;4992650;28;20317;-83
2024/01/17 12:59:23;;;;;;;17.47;12.40;;;;;;;;;;4992732;28;20207;-81
2024/01/17 13:01:50;;;;;;;14.60;12.13;;;;;;;;;;4992632;28;20743;-81
2024/01/17 13:04:19;;;;;;;15.93;11.33;;;;;;;;;;4992882;28;20211;-81
2024/01/17 13:06:46;;;;;;;18.40;10.10;;;;;;;;;;4992859;28;20238;-82
2024/01/17 13:09:15;;;;;;;19.77;11.83;;;;;;;;;;4993323;28;20265;-82
2024/01/17 13:11:42;;;;;;;23.10;12.40;;;;;;;;;;4992330;28;20325;-82
2024/01/17 13:14:09;;;;;;;18.00;12.27;;;;;;;;;;4993071;28;20394;-82
2024/01/17 13:16:36;;;;;;;22.23;13.30;;;;;;;;;;4992427;28;20260;-82
2024/01/17 13:19:10;;;;;;;16.40;12.67;;;;;;;;;;4992485;28;20362;-82
2024/01/17 13:21:38;;;;;;;21.77;12.43;;;;;;;;;;4992310;28;20239;-82
2024/01/17 13:24:05;;;;;;;17.30;11.80;;;;;;;;;;4993023;28;20219;-82
2024/01/17 13:26:35;;;;;;;17.03;12.70;;;;;;;;;;4992275;28;20316;-82
2024/01/17 13:29:02;;;;;;;24.93;14.83;;;;;;;;;;4992681;28;20227;-81
2024/01/17 13:31:29;;;;;;;23.93;13.33;;;;;;;;;;4992005;28;20251;-81
2024/01/17 13:33:58;;;;;;;16.90;12.60;;;;;;;;;;4992773;28;20325;-82
2024/01/17 13:36:25;;;;;;;22.17;13.57;;;;;;;;;;4992168;28;20242;-81
2024/01/17 13:38:54;;;;;;;18.93;12.37;;;;;;;;;;4992452;28;20250;-82
2024/01/17 13:41:21;;;;;;;18.70;12.77;;;;;;;;;;4991937;28;20243;-82
2024/01/17 13:43:48;;;;;;;21.63;13.53;;;;;;;;;;4992421;28;20238;-82
2024/01/17 13:46:15;;;;;;;21.70;14.27;;;;;;;;;;4991919;28;20231;-82
2024/01/17 13:48:43;;;;;;;22.33;12.80;;;;;;;;;;4992144;28;20220;-82
2024/01/17 13:51:12;;;;;;;20.07;12.13;;;;;;;;;;4991993;28;20262;-82
2024/01/17 13:53:41;;;;;;;18.43;13.10;;;;;;;;;;4992498;28;20251;-82
2024/01/17 13:56:10;;;;;;;25.53;14.13;;;;;;;;;;4992033;28;20306;-83
2024/01/17 13:58:38;;;;;;;20.20;13.43;;;;;;;;;;4992458;28;20244;-82
2024/01/17 14:01:08;;;;;;;21.27;13.30;;;;;;;;;;4992185;28;20242;-81
2024/01/17 14:03:35;;;;;;;17.10;12.70;;;;;;;;;;4992407;28;20215;-82
2024/01/17 14:06:03;;;;;;;17.60;12.97;;;;;;;;;;4991997;28;20631;-82
2024/01/17 14:08:30;;;;;;;20.03;14.10;;;;;;;;;;4992436;28;20211;-82
2024/01/17 14:10:58;;;;;;;19.83;13.30;;;;;;;;;;4991857;28;20247;-82
2024/01/17 14:13:26;;;;;;;18.00;12.37;;;;;;;;;;4996148;28;20230;-82
2024/01/17 14:15:53;;;;;;;22.47;12.53;;;;;;;;;;4996125;28;20292;-83
2024/01/17 14:18:20;;;;;;;18.13;12.13;;;;;;;;;;4996430;28;20211;-82
2024/01/17 14:20:48;;;;;;;21.67;14.73;;;;;;;;;;4996075;28;20242;-82
2024/01/17 14:23:15;;;;;;;18.20;12.50;;;;;;;;;;4996478;28;20293;-82
2024/01/17 14:25:43;;;;;;;20.03;13.73;;;;;;;;;;4995740;28;20230;-83
2024/01/17 14:28:10;;;;;;;20.40;12.53;;;;;;;;;;4995942;28;20875;-82
2024/01/17 14:30:39;;;;;;;22.77;13.60;;;;;;;;;;4995534;28;20250;-82
2024/01/17 14:33:06;;;;;;;18.87;13.53;;;;;;;;;;4996091;28;20217;-82